Time;durP1;ratioP1;P1;durP2;ratioP2;P2;SDS_P1;SDS_P2;PMS_P1;PMS_P2;Temp;Humidity;BMP_temperature;BMP_pressure;BME280_temperature;BME280_humidity;BME280_pressure;Samples;Min_cycle;Max_cycle;Signal;HPM_P1;HPM_P2
2021/07/30 00:00:00;;;;;;;14.87;10.82;;;;;;;23.34;85.17;99110.55;1642915;87;20967;-72
2021/07/30 00:02:26;;;;;;;16.00;10.98;;;;;;;23.33;84.91;99095.23;1621542;88;21073;-72
2021/07/30 00:04:53;;;;;;;13.75;10.88;;;;;;;23.36;84.91;99094.52;1620467;87;21037;-71
2021/07/30 00:07:19;;;;;;;14.20;11.18;;;;;;;23.39;84.85;99092.47;1627021;87;21214;-71
2021/07/30 00:09:46;;;;;;;16.82;10.30;;;;;;;23.44;84.79;99092.80;1625656;87;21066;-73
2021/07/30 00:12:12;;;;;;;14.30;9.85;;;;;;;23.47;84.22;99089.37;1644758;87;21751;-70
2021/07/30 00:14:39;;;;;;;13.95;10.72;;;;;;;23.46;83.78;99088.56;1625355;87;21009;-70
2021/07/30 00:17:06;;;;;;;13.05;9.75;;;;;;;23.46;83.24;99083.65;1632284;87;21043;-69
2021/07/30 00:19:33;;;;;;;14.30;9.45;;;;;;;23.45;83.37;99072.47;1622937;87;21379;-70
2021/07/30 00:22:00;;;;;;;12.82;9.60;;;;;;;23.42;83.42;99071.75;1622069;87;21565;-71
2021/07/30 00:24:27;;;;;;;16.40;11.78;;;;;;;23.40;83.58;99065.22;1641495;87;20918;-74
2021/07/30 00:26:53;;;;;;;13.55;11.03;;;;;;;23.40;83.60;99061.11;1640070;87;21018;-73
2021/07/30 00:29:20;;;;;;;13.95;12.55;;;;;;;23.23;84.65;99055.13;1622973;87;21623;-72
2021/07/30 00:31:48;;;;;;;14.25;11.90;;;;;;;22.86;86.74;99053.88;1623989;87;21077;-71
2021/07/30 00:34:15;;;;;;;19.90;12.73;;;;;;;22.57;88.76;99052.76;1623904;87;21058;-72
2021/07/30 00:36:41;;;;;;;14.73;13.20;;;;;;;22.35;90.70;99051.88;1627798;87;20942;-72
2021/07/30 00:39:08;;;;;;;14.07;12.23;;;;;;;22.19;92.29;99057.23;1621020;87;21033;-71
2021/07/30 00:41:42;;;;;;;15.35;13.90;;;;;;;22.08;93.11;99056.08;1621908;87;21072;-72
2021/07/30 00:44:07;;;;;;;13.45;11.85;;;;;;;22.02;93.71;99051.38;1651936;85;21184;-71
2021/07/30 00:46:35;;;;;;;15.53;12.93;;;;;;;21.96;94.21;99041.81;1639986;85;21039;-71
2021/07/30 00:49:03;;;;;;;14.75;13.22;;;;;;;21.86;95.12;99049.07;1604218;88;21108;-71
2021/07/30 00:51:31;;;;;;;14.83;13.45;;;;;;;21.79;95.93;99044.70;1641855;87;20922;-76
2021/07/30 00:53:58;;;;;;;13.30;12.07;;;;;;;21.77;95.94;99042.09;1651849;85;21022;-72
2021/07/30 00:56:28;;;;;;;23.38;13.60;;;;;;;21.75;95.99;99039.13;1651757;85;21071;-72
2021/07/30 00:58:56;;;;;;;16.02;12.95;;;;;;;21.70;96.33;99039.91;1644758;87;22530;-70
2021/07/30 01:01:24;;;;;;;17.98;12.70;;;;;;;21.61;96.67;99038.64;1645290;87;21590;-69
2021/07/30 01:03:55;;;;;;;16.35;12.80;;;;;;;21.53;97.35;99033.26;1645510;86;21141;-70
2021/07/30 01:06:23;;;;;;;15.38;12.13;;;;;;;21.44;98.04;99038.80;1643368;87;21120;-69
2021/07/30 01:08:54;;;;;;;12.30;10.30;;;;;;;21.39;98.29;99040.97;1611911;87;21117;-71
2021/07/30 01:11:23;;;;;;;12.80;10.20;;;;;;;21.34;98.45;99048.82;1650719;85;21018;-70
2021/07/30 01:13:54;;;;;;;13.53;11.30;;;;;;;21.32;98.62;99049.71;1673321;85;20942;-70
2021/07/30 01:16:22;;;;;;;14.03;9.08;;;;;;;21.31;98.78;99042.07;1673724;85;21034;-70
2021/07/30 01:18:53;;;;;;;11.63;10.50;;;;;;;21.39;97.87;99047.81;1664312;85;21079;-70
2021/07/30 01:21:26;;;;;;;14.73;9.93;;;;;;;21.41;96.84;99046.32;1645775;87;21045;-76
2021/07/30 01:23:55;;;;;;;10.98;9.93;;;;;;;21.42;96.74;99044.39;1649893;85;21512;-75
2021/07/30 01:26:27;;;;;;;10.60;9.50;;;;;;;21.37;97.34;99051.44;1655447;85;20996;-75
2021/07/30 01:28:59;;;;;;;12.00;10.58;;;;;;;21.31;97.90;99046.17;1649185;85;21070;-76
2021/07/30 01:31:28;;;;;;;13.22;10.98;;;;;;;21.22;98.48;99048.19;1647483;87;21042;-74
2021/07/30 01:33:55;;;;;;;10.82;9.73;;;;;;;21.19;98.79;99045.34;1644555;86;21265;-72
2021/07/30 01:36:21;;;;;;;11.05;9.48;;;;;;;21.17;98.87;99043.49;1647665;87;21086;-74
2021/07/30 01:38:48;;;;;;;11.25;9.23;;;;;;;21.19;98.49;99045.34;1651204;85;21527;-75
2021/07/30 01:41:15;;;;;;;11.85;9.85;;;;;;;21.21;98.28;99051.25;1655940;85;21014;-75
2021/07/30 01:43:43;;;;;;;10.25;9.35;;;;;;;21.20;98.16;99045.55;1621814;87;21052;-74
2021/07/30 01:46:10;;;;;;;9.88;8.53;;;;;;;21.19;98.14;99044.77;1621172;87;21868;-74
2021/07/30 01:48:37;;;;;;;10.58;9.48;;;;;;;21.15;98.46;99048.52;1636789;86;21112;-75
2021/07/30 01:51:04;;;;;;;10.60;9.50;;;;;;;21.14;98.65;99052.38;1636868;86;21008;-75
2021/07/30 01:53:32;;;;;;;10.35;9.45;;;;;;;21.14;98.65;99055.11;1636942;86;21573;-75
2021/07/30 01:56:03;;;;;;;9.33;8.50;;;;;;;21.09;99.01;99044.34;1636870;86;21099;-75
2021/07/30 01:58:27;;;;;;;10.48;9.40;;;;;;;21.01;99.59;99050.09;1636678;86;21105;-75
2021/07/30 02:00:54;;;;;;;10.32;7.92;;;;;;;20.94;100.00;99044.38;1636886;87;21509;-77
2021/07/30 02:03:21;;;;;;;11.50;7.85;;;;;;;20.97;100.00;99049.73;1631647;88;21034;-77
2021/07/30 02:05:47;;;;;;;9.10;8.08;;;;;;;20.98;98.87;99056.81;1635465;87;21079;-76
2021/07/30 02:08:13;;;;;;;9.23;8.43;;;;;;;20.96;99.79;99050.89;1633308;86;21026;-75
2021/07/30 02:10:40;;;;;;;10.88;8.95;;;;;;;20.93;100.00;99063.84;1631820;87;21227;-74
2021/07/30 02:15:52;;;;;;;9.28;8.23;;;;;;;20.77;100.00;99058.97;1645311;86;21006;-76
2021/07/30 02:18:19;;;;;;;9.18;8.28;;;;;;;20.77;100.00;99063.63;1663898;86;21532;-74
2021/07/30 02:20:45;;;;;;;10.08;9.03;;;;;;;20.80;100.00;99063.78;1674800;84;21106;-75
2021/07/30 02:23:12;;;;;;;11.40;8.10;;;;;;;20.82;100.00;99071.07;1642152;86;21128;-75
2021/07/30 02:25:38;;;;;;;12.40;7.60;;;;;;;20.84;100.00;99068.81;1643462;86;21014;-74
2021/07/30 02:28:05;;;;;;;9.53;7.55;;;;;;;20.87;100.00;99059.94;1648049;85;21586;-75
2021/07/30 02:30:31;;;;;;;9.25;7.67;;;;;;;20.92;100.00;99067.70;1636867;86;21030;-73
2021/07/30 02:32:57;;;;;;;8.38;7.58;;;;;;;20.94;100.00;99074.45;1644970;86;21000;-74
2021/07/30 02:35:23;;;;;;;8.65;7.75;;;;;;;20.94;100.00;99082.66;1676987;85;21084;-75
2021/07/30 02:37:50;;;;;;;10.63;8.35;;;;;;;20.84;100.00;99081.68;1663796;85;21500;-75
2021/07/30 02:40:17;;;;;;;10.80;9.28;;;;;;;20.68;100.00;99085.55;1663947;86;21016;-75
2021/07/30 02:42:43;;;;;;;13.45;8.18;;;;;;;20.62;100.00;99088.27;1655311;85;21051;-74
2021/07/30 02:45:11;;;;;;;11.30;7.17;;;;;;;20.67;100.00;99087.27;1646068;86;21127;-74
2021/07/30 02:47:38;;;;;;;9.25;7.72;;;;;;;20.75;100.00;99095.97;1653325;85;21044;-76
2021/07/30 02:50:07;;;;;;;8.20;7.50;;;;;;;20.80;100.00;99103.98;1670448;85;20919;-74
2021/07/30 02:52:34;;;;;;;9.30;7.45;;;;;;;20.82;100.00;99104.44;1653519;85;21038;-75
2021/07/30 02:55:00;;;;;;;9.80;8.38;;;;;;;20.85;100.00;99109.26;1673364;85;21043;-75
2021/07/30 02:57:27;;;;;;;8.60;7.70;;;;;;;20.88;100.00;99115.42;1686842;85;21002;-75
2021/07/30 02:59:53;;;;;;;10.82;8.20;;;;;;;20.94;100.00;99120.12;1671946;85;21276;-77
2021/07/30 03:02:20;;;;;;;9.60;8.58;;;;;;;21.00;100.00;99130.55;1616874;84;2103650;-76
2021/07/30 03:04:46;;;;;;;11.12;7.90;;;;;;;21.07;99.55;99128.64;1643744;86;21041;-74
2021/07/30 03:07:14;;;;;;;8.28;7.53;;;;;;;21.14;98.95;99133.05;1655093;85;37736;-75
2021/07/30 03:09:41;;;;;;;8.05;7.35;;;;;;;21.24;98.44;99132.09;1685173;85;21031;-74
2021/07/30 03:12:08;;;;;;;9.85;7.97;;;;;;;21.34;97.58;99141.03;1643141;85;21062;-76
2021/07/30 03:14:38;;;;;;;7.87;7.17;;;;;;;21.42;96.81;99145.63;1650189;85;20959;-74
2021/07/30 03:17:06;;;;;;;9.75;8.23;;;;;;;21.49;95.75;99145.30;1646085;86;20986;-74
2021/07/30 03:19:33;;;;;;;12.43;7.67;;;;;;;21.57;95.06;99150.48;1645829;86;21578;-74
2021/07/30 03:21:59;;;;;;;9.10;8.20;;;;;;;21.63;94.12;99147.78;1645943;86;21039;-74
2021/07/30 03:24:26;;;;;;;9.35;8.45;;;;;;;21.69;93.35;99155.44;1669560;85;20997;-73
2021/07/30 03:26:53;;;;;;;10.28;8.63;;;;;;;21.76;92.61;99157.64;1667594;85;21023;-73
2021/07/30 03:29:20;;;;;;;8.25;7.50;;;;;;;21.78;91.81;99156.72;1645889;87;21091;-73
2021/07/30 03:31:49;;;;;;;10.63;7.72;;;;;;;21.80;91.39;99163.23;1645812;86;21047;-72
2021/07/30 03:34:16;;;;;;;10.23;7.50;;;;;;;21.82;91.11;99165.88;1645851;86;21066;-73
2021/07/30 03:36:44;;;;;;;8.83;7.40;;;;;;;21.84;90.69;99161.41;1649130;87;21566;-73
2021/07/30 03:39:11;;;;;;;11.83;7.72;;;;;;;21.86;90.53;99166.80;1657100;85;21043;-74
2021/07/30 03:41:37;;;;;;;9.00;8.20;;;;;;;21.87;90.29;99173.08;1644471;87;21121;-74
2021/07/30 03:44:04;;;;;;;10.38;9.35;;;;;;;21.85;90.00;99172.04;1661356;85;21086;-74
2021/07/30 03:46:31;;;;;;;9.83;8.73;;;;;;;21.83;89.89;99180.34;1665341;84;21109;-73
2021/07/30 03:48:57;;;;;;;10.03;8.58;;;;;;;21.81;90.06;99179.33;1649470;86;22166;-74
2021/07/30 03:51:24;;;;;;;9.88;8.08;;;;;;;21.82;89.95;99174.09;1625923;86;21066;-74
2021/07/30 03:53:51;;;;;;;9.35;7.83;;;;;;;21.86;90.07;99185.16;1649283;87;20922;-74
2021/07/30 03:56:17;;;;;;;10.05;8.45;;;;;;;21.89;89.91;99175.70;1649025;87;21065;-73
2021/07/30 03:58:46;;;;;;;13.15;8.48;;;;;;;21.91;89.78;99180.28;1661274;85;21527;-74
2021/07/30 04:01:13;;;;;;;9.80;7.70;;;;;;;21.96;89.63;99186.15;1679699;84;21232;-74
2021/07/30 04:03:40;;;;;;;8.80;7.90;;;;;;;21.96;89.56;99191.63;1679594;84;20999;-73
2021/07/30 04:06:07;;;;;;;12.40;8.38;;;;;;;21.99;89.59;99198.59;1680665;84;21045;-75
2021/07/30 04:08:34;;;;;;;8.78;7.87;;;;;;;22.01;89.53;99194.95;1651544;86;21009;-73
2021/07/30 04:11:01;;;;;;;7.65;7.00;;;;;;;22.03;89.34;99198.14;1649475;86;21017;-73
2021/07/30 04:13:27;;;;;;;8.35;7.65;;;;;;;22.02;89.24;99197.91;1626218;87;21109;-73
2021/07/30 04:15:57;;;;;;;9.00;8.23;;;;;;;22.01;89.28;99203.17;1649023;86;20938;-72
2021/07/30 04:18:24;;;;;;;10.05;7.47;;;;;;;22.01;89.32;99207.84;1648880;87;21525;-73
2021/07/30 04:20:50;;;;;;;9.35;8.48;;;;;;;22.02;89.47;99201.20;1641353;85;21007;-73
2021/07/30 04:23:17;;;;;;;10.75;9.28;;;;;;;22.03;89.47;99205.55;1679395;84;21094;-72
2021/07/30 04:25:43;;;;;;;9.60;8.05;;;;;;;22.06;89.43;99210.38;1659871;84;21883;-73
2021/07/30 04:28:09;;;;;;;11.73;8.73;;;;;;;22.09;89.30;99211.06;1660430;85;21058;-72
2021/07/30 04:30:36;;;;;;;9.40;8.45;;;;;;;22.11;89.28;99217.79;1670495;84;21029;-72
2021/07/30 04:33:02;;;;;;;9.33;8.35;;;;;;;22.17;89.27;99214.27;1649042;87;21049;-71
2021/07/30 04:35:28;;;;;;;10.40;8.65;;;;;;;22.20;89.14;99219.66;1649105;87;21081;-74
2021/07/30 04:37:56;;;;;;;9.10;8.00;;;;;;;22.23;88.76;99217.04;1649212;86;21085;-75
2021/07/30 04:40:23;;;;;;;8.73;7.55;;;;;;;22.28;88.67;99216.02;1626074;87;20985;-75
2021/07/30 04:42:50;;;;;;;8.45;7.58;;;;;;;22.32;88.28;99216.37;1655337;85;21622;-74
2021/07/30 04:45:17;;;;;;;7.70;7.12;;;;;;;22.37;88.09;99217.53;1661305;86;21111;-75
2021/07/30 04:47:44;;;;;;;8.80;7.90;;;;;;;22.41;87.78;99229.41;1638500;87;21071;-75
2021/07/30 04:50:10;;;;;;;10.08;8.58;;;;;;;22.44;87.50;99224.64;1656844;85;21106;-75
2021/07/30 04:52:38;;;;;;;8.95;7.62;;;;;;;22.46;87.66;99222.34;1677534;85;21069;-73
2021/07/30 04:55:07;;;;;;;9.70;8.10;;;;;;;22.45;87.11;99219.36;1677491;84;20912;-74
2021/07/30 04:57:34;;;;;;;9.00;8.13;;;;;;;22.49;87.33;99218.91;1677682;85;20994;-73
2021/07/30 05:00:00;;;;;;;9.18;8.30;;;;;;;22.55;87.35;99220.30;1688618;84;20987;-74
2021/07/30 05:02:26;;;;;;;7.70;6.62;;;;;;;22.60;87.15;99217.91;1647149;85;21123;-74
2021/07/30 05:04:56;;;;;;;7.30;6.65;;;;;;;22.67;86.75;99222.27;1654199;84;21032;-74
2021/07/30 05:07:23;;;;;;;8.68;7.92;;;;;;;22.72;85.76;99219.33;1626346;87;21045;-73
2021/07/30 05:09:49;;;;;;;10.50;8.88;;;;;;;22.71;85.36;99225.95;1634621;87;21528;-75
2021/07/30 05:12:16;;;;;;;8.40;7.60;;;;;;;22.68;85.35;99224.44;1652615;85;21050;-74
2021/07/30 05:14:44;;;;;;;8.28;7.53;;;;;;;22.67;85.68;99233.80;1651523;84;20915;-73
2021/07/30 05:17:12;;;;;;;6.92;6.28;;;;;;;22.67;85.88;99231.86;1647555;87;22162;-74
2021/07/30 05:19:40;;;;;;;8.75;7.75;;;;;;;22.68;85.40;99229.36;1628757;85;21071;-74
2021/07/30 05:22:06;;;;;;;8.15;7.45;;;;;;;22.71;85.34;99238.30;1668142;85;21010;-74
2021/07/30 05:24:37;;;;;;;11.00;8.50;;;;;;;22.73;85.21;99233.28;1647254;87;21067;-74
2021/07/30 05:27:06;;;;;;;11.38;8.35;;;;;;;22.76;85.68;99229.04;1647359;87;21264;-74
2021/07/30 05:29:32;;;;;;;10.43;7.42;;;;;;;22.82;85.41;99234.53;1649989;87;20955;-75
2021/07/30 05:31:59;;;;;;;8.95;8.15;;;;;;;22.87;84.69;99236.48;1649916;86;20952;-75
2021/07/30 05:34:26;;;;;;;11.15;6.72;;;;;;;22.91;84.46;99229.73;1653884;85;21554;-75
2021/07/30 05:36:52;;;;;;;12.53;8.38;;;;;;;22.94;84.05;99231.78;1677589;84;21062;-74
2021/07/30 05:39:19;;;;;;;7.90;7.17;;;;;;;22.99;83.80;99232.93;1677430;84;21141;-74
2021/07/30 05:41:45;;;;;;;9.83;8.83;;;;;;;23.03;83.56;99240.70;1688889;84;21007;-75
2021/07/30 05:44:13;;;;;;;9.23;7.67;;;;;;;23.06;83.65;99234.55;1658802;85;20916;-75
2021/07/30 05:46:40;;;;;;;11.65;8.30;;;;;;;23.09;83.88;99235.78;1623337;88;21057;-76
2021/07/30 05:49:06;;;;;;;8.05;6.92;;;;;;;23.12;84.07;99242.75;1623507;88;21041;-76
2021/07/30 05:51:41;;;;;;;8.35;6.87;;;;;;;23.15;83.86;99240.70;1623417;88;21178;-74
2021/07/30 05:54:04;;;;;;;8.45;7.15;;;;;;;23.19;83.64;99244.36;1601527;88;21107;-73
2021/07/30 05:56:31;;;;;;;8.33;7.35;;;;;;;23.23;83.24;99246.64;1603135;87;20989;-74
2021/07/30 05:58:57;;;;;;;7.75;6.78;;;;;;;23.28;82.84;99240.11;1627774;86;21090;-74
2021/07/30 06:01:24;;;;;;;8.58;7.83;;;;;;;23.33;82.04;99247.55;1624683;88;21039;-74
2021/07/30 06:03:51;;;;;;;7.37;6.75;;;;;;;23.39;80.71;99249.48;1630046;87;21127;-73
2021/07/30 06:06:18;;;;;;;8.30;6.75;;;;;;;23.39;80.47;99248.92;1642252;86;21034;-75
2021/07/30 06:08:44;;;;;;;8.50;7.72;;;;;;;23.41;79.47;99249.36;1621288;88;21584;-74
2021/07/30 06:11:11;;;;;;;8.35;7.35;;;;;;;23.42;79.00;99246.84;1620843;88;21071;-74
2021/07/30 06:13:38;;;;;;;8.08;7.25;;;;;;;23.45;78.96;99241.28;1620918;88;21082;-73
2021/07/30 06:16:09;;;;;;;14.65;8.18;;;;;;;23.47;77.96;99237.59;1621138;88;21109;-76
2021/07/30 06:18:38;;;;;;;8.57;7.77;;;;;;;23.51;78.17;99244.56;1603343;88;21019;-75
2021/07/30 06:21:05;;;;;;;8.25;7.15;;;;;;;23.53;77.46;99240.34;1623643;87;21006;-74
2021/07/30 06:23:32;;;;;;;9.63;7.75;;;;;;;23.53;77.09;99236.80;1624505;88;21509;-75
2021/07/30 06:25:59;;;;;;;13.45;7.20;;;;;;;23.53;76.98;99236.22;1625288;87;21508;-75
2021/07/30 06:28:25;;;;;;;8.45;6.97;;;;;;;23.56;77.03;99240.20;1623206;88;21122;-74
2021/07/30 06:30:51;;;;;;;8.68;7.87;;;;;;;23.58;77.14;99231.87;1623766;87;21029;-74
2021/07/30 06:33:18;;;;;;;10.50;7.90;;;;;;;23.64;77.09;99230.48;1623525;87;21105;-74
2021/07/30 06:35:51;;;;;;;7.65;7.05;;;;;;;23.70;76.93;99224.15;1623275;88;21073;-74
2021/07/30 06:38:17;;;;;;;;;;;;;;;23.78;76.70;99228.72;1605541;88;21533;-74
2021/07/30 06:40:46;;;;;;;8.55;7.72;;;;;;;23.85;76.23;99239.33;1623283;88;22934;-75
2021/07/30 06:43:13;;;;;;;8.50;7.10;;;;;;;23.89;75.06;99235.30;1623541;88;20949;-74
2021/07/30 06:45:40;;;;;;;7.72;7.00;;;;;;;23.92;74.95;99225.01;1647491;85;21025;-75
2021/07/30 06:48:07;;;;;;;7.30;6.65;;;;;;;23.97;75.22;99222.02;1631140;85;21308;-75
2021/07/30 06:50:33;;;;;;;7.83;7.12;;;;;;;24.05;74.95;99225.74;1654652;85;21042;-75
2021/07/30 06:53:00;;;;;;;11.22;7.67;;;;;;;24.13;74.76;99222.03;1626053;87;21243;-75
2021/07/30 06:55:27;;;;;;;8.10;7.30;;;;;;;24.21;74.08;99219.75;1678012;85;21011;-74
2021/07/30 06:57:53;;;;;;;7.50;6.75;;;;;;;24.26;72.62;99220.30;1679401;84;21503;-74
2021/07/30 07:00:20;;;;;;;7.85;7.10;;;;;;;24.30;72.21;99219.81;1679317;85;21030;-75
2021/07/30 07:02:46;;;;;;;7.87;7.17;;;;;;;24.33;70.73;99226.55;1688600;84;21109;-75
2021/07/30 07:05:13;;;;;;;7.10;6.40;;;;;;;24.38;70.76;99220.79;1679450;84;21465;-74
2021/07/30 07:07:39;;;;;;;7.15;6.55;;;;;;;24.44;70.97;99217.20;1675907;84;20962;-74
2021/07/30 07:10:07;;;;;;;8.28;7.47;;;;;;;24.51;70.53;99216.80;1670985;85;21014;-75
2021/07/30 07:12:33;;;;;;;8.75;7.87;;;;;;;24.57;69.50;99215.40;1679584;84;21026;-75
2021/07/30 07:14:59;;;;;;;7.28;6.53;;;;;;;24.64;68.11;99212.04;1688639;84;21063;-76
2021/07/30 07:17:27;;;;;;;7.08;6.45;;;;;;;24.71;68.35;99216.33;1679354;84;20978;-76
2021/07/30 07:19:53;;;;;;;7.37;6.70;;;;;;;24.75;67.84;99213.89;1679226;84;21022;-74
2021/07/30 07:22:19;;;;;;;7.40;6.70;;;;;;;24.78;66.71;99222.02;1675683;84;21022;-75
2021/07/30 07:24:46;;;;;;;9.00;7.05;;;;;;;24.83;66.43;99217.63;1678507;85;21044;-74
2021/07/30 07:27:12;;;;;;;8.98;6.70;;;;;;;24.88;65.41;99209.14;1679420;84;21625;-77
2021/07/30 07:29:38;;;;;;;8.03;6.60;;;;;;;24.94;65.58;99223.42;1676862;84;21071;-77
2021/07/30 07:32:06;;;;;;;7.22;6.62;;;;;;;25.00;65.29;99217.27;1652024;86;21007;-74
2021/07/30 07:34:32;;;;;;;5.58;5.08;;;;;;;25.04;63.77;99216.78;1651878;86;21042;-74
2021/07/30 07:37:00;;;;;;;7.40;6.40;;;;;;;25.09;61.42;99216.50;1651633;86;21593;-75
2021/07/30 07:39:26;;;;;;;8.50;5.75;;;;;;;25.15;61.76;99228.04;1668266;85;21035;-77
2021/07/30 07:41:53;;;;;;;7.85;6.95;;;;;;;25.17;60.88;99225.16;1651999;86;21519;-75
2021/07/30 07:44:19;;;;;;;7.42;6.72;;;;;;;25.24;61.74;99230.02;1650244;86;20987;-75
2021/07/30 07:46:47;;;;;;;7.05;6.42;;;;;;;25.28;60.83;99225.96;1664117;85;21528;-75
2021/07/30 07:49:14;;;;;;;7.22;6.45;;;;;;;25.33;60.72;99225.69;1675552;85;21063;-75
2021/07/30 07:51:40;;;;;;;6.70;5.80;;;;;;;25.39;60.99;99240.78;1663904;84;21094;-75
2021/07/30 07:54:07;;;;;;;6.25;5.65;;;;;;;25.46;60.48;99238.20;1670304;85;21177;-74
2021/07/30 07:56:33;;;;;;;7.17;6.47;;;;;;;25.49;60.27;99253.41;1649377;85;21055;-75
2021/07/30 07:59:01;;;;;;;11.10;6.58;;;;;;;25.55;60.33;99245.13;1636950;86;21001;-77
2021/07/30 08:01:27;;;;;;;6.08;5.55;;;;;;;25.64;59.97;99251.80;1636909;86;21029;-77
2021/07/30 08:03:54;;;;;;;8.05;5.55;;;;;;;25.70;59.02;99246.23;1636867;86;21090;-77
2021/07/30 08:06:22;;;;;;;8.43;6.37;;;;;;;25.78;58.71;99247.17;1613590;87;22040;-76
2021/07/30 08:08:49;;;;;;;6.62;5.72;;;;;;;25.88;56.87;99249.36;1657034;86;21054;-76
2021/07/30 08:11:16;;;;;;;6.33;5.72;;;;;;;25.97;57.34;99249.94;1676910;85;21145;-75
2021/07/30 08:13:45;;;;;;;7.03;4.95;;;;;;;26.00;55.67;99243.11;1663995;85;21018;-78
2021/07/30 08:16:12;;;;;;;9.98;5.65;;;;;;;26.02;56.45;99244.13;1664016;85;20987;-77
2021/07/30 08:18:40;;;;;;;10.05;6.03;;;;;;;26.04;56.39;99241.83;1676946;85;20998;-76
2021/07/30 08:21:08;;;;;;;10.25;6.42;;;;;;;26.07;56.46;99249.36;1664029;84;21003;-76
2021/07/30 08:23:34;;;;;;;5.90;5.35;;;;;;;26.11;56.58;99247.46;1641502;85;21503;-76
2021/07/30 08:26:00;;;;;;;7.15;6.55;;;;;;;26.17;55.77;99256.23;1663082;86;21008;-74
2021/07/30 08:28:27;;;;;;;6.12;5.47;;;;;;;26.18;55.88;99266.91;1677140;85;21067;-74
2021/07/30 08:30:54;;;;;;;6.08;5.35;;;;;;;26.18;55.27;99250.95;1677130;84;21519;-75
2021/07/30 08:33:21;;;;;;;5.53;5.03;;;;;;;26.17;54.97;99258.42;1646206;85;21011;-74
2021/07/30 08:35:49;;;;;;;5.62;4.55;;;;;;;26.19;54.11;99255.28;1641787;86;21020;-77
2021/07/30 08:38:16;;;;;;;4.92;4.42;;;;;;;26.23;53.83;99257.58;1663955;86;20920;-73
2021/07/30 08:40:42;;;;;;;5.20;4.80;;;;;;;26.28;54.28;99256.67;1663785;85;21094;-75
2021/07/30 08:43:16;;;;;;;5.40;4.90;;;;;;;26.35;54.11;99271.19;1667410;85;21007;-74
2021/07/30 08:45:49;;;;;;;4.85;4.42;;;;;;;26.38;51.92;99254.70;1672185;85;20978;-74
2021/07/30 08:48:16;;;;;;;5.30;4.90;;;;;;;26.40;51.12;99252.97;1647630;87;21417;-75
2021/07/30 08:50:42;;;;;;;5.55;5.03;;;;;;;26.42;51.58;99252.03;1613795;88;21079;-76
2021/07/30 08:53:08;;;;;;;5.42;4.90;;;;;;;26.44;52.22;99251.88;1649161;86;21031;-75
2021/07/30 08:55:35;;;;;;;7.37;4.65;;;;;;;26.48;52.83;99259.63;1620260;88;21785;-74
2021/07/30 08:58:02;;;;;;;5.15;4.72;;;;;;;26.53;51.15;99268.76;1625599;87;21105;-73
2021/07/30 09:00:28;;;;;;;5.80;5.22;;;;;;;26.54;50.55;99268.41;1618820;88;21010;-75
2021/07/30 09:02:57;;;;;;;5.97;5.37;;;;;;;26.50;51.31;99256.52;1648956;87;21047;-73
2021/07/30 09:05:30;;;;;;;6.20;4.95;;;;;;;26.51;51.49;99264.20;1649092;87;21045;-75
2021/07/30 09:08:02;;;;;;;5.67;4.15;;;;;;;26.53;51.17;99257.72;1621339;88;21129;-76
2021/07/30 09:10:40;;;;;;;6.40;5.55;;;;;;;26.57;50.97;99252.48;1630883;87;21040;-74
2021/07/30 09:13:23;;;;;;;5.35;4.83;;;;;;;26.64;50.64;99254.58;1632515;88;21114;-75
2021/07/30 09:16:10;;;;;;;5.05;4.55;;;;;;;26.81;50.10;99270.67;1649033;84;21048;-75
2021/07/30 09:18:43;;;;;;;4.92;4.53;;;;;;;26.88;50.37;99256.43;1585193;88;21150;-74
2021/07/30 09:21:30;;;;;;;9.83;4.87;;;;;;;26.84;49.39;99244.50;1620106;88;21854;-74
2021/07/30 09:24:11;;;;;;;4.75;4.35;;;;;;;26.89;49.76;99255.27;1649077;87;21011;-73
2021/07/30 09:26:56;;;;;;;7.92;4.20;;;;;;;27.01;49.62;99263.92;1609113;87;21046;-75
2021/07/30 09:29:27;;;;;;;6.17;4.33;;;;;;;27.05;47.85;99250.97;1627674;87;21072;-75
2021/07/30 09:32:02;;;;;;;5.12;4.45;;;;;;;27.08;47.84;99257.73;1593941;89;21559;-75
2021/07/30 09:34:35;;;;;;;4.75;4.35;;;;;;;27.12;47.43;99240.63;1598112;88;23337;-74
2021/07/30 09:37:04;;;;;;;3.95;3.65;;;;;;;27.16;47.78;99248.38;1620837;87;21037;-70
2021/07/30 09:39:47;;;;;;;4.45;4.05;;;;;;;27.22;47.16;99255.19;1616327;88;21012;-71
2021/07/30 09:42:16;;;;;;;4.92;4.50;;;;;;;27.25;46.55;99253.86;1619356;88;20979;-72
2021/07/30 09:44:52;;;;;;;5.55;5.05;;;;;;;27.28;46.39;99239.91;1673021;85;20974;-73
2021/07/30 09:47:27;;;;;;;4.90;4.50;;;;;;;27.32;46.30;99249.84;1630977;86;21164;-77
2021/07/30 09:50:05;;;;;;;4.70;4.28;;;;;;;27.39;46.78;99250.50;1649569;86;21025;-75
2021/07/30 09:52:36;;;;;;;4.25;3.95;;;;;;;27.49;46.67;99244.95;1649657;87;20906;-73
2021/07/30 09:55:11;;;;;;;4.15;3.85;;;;;;;27.55;46.23;99260.84;1636404;86;21097;-72
2021/07/30 09:57:40;;;;;;;4.50;4.05;;;;;;;27.58;45.30;99239.94;1649857;87;21070;-72
2021/07/30 10:00:09;;;;;;;5.45;4.95;;;;;;;27.59;43.58;99244.30;1626754;87;20998;-70
2021/07/30 10:02:37;;;;;;;5.28;3.83;;;;;;;27.60;43.91;99243.14;1649583;86;21005;-70
2021/07/30 10:05:05;;;;;;;4.37;3.62;;;;;;;27.63;44.08;99243.77;1671054;85;21002;-72
2021/07/30 10:07:33;;;;;;;4.80;4.33;;;;;;;27.66;45.48;99226.45;1661342;85;20955;-73
2021/07/30 10:10:15;;;;;;;4.67;4.28;;;;;;;27.77;45.15;99239.03;1626789;87;21019;-70
2021/07/30 10:12:52;;;;;;;5.53;3.62;;;;;;;27.87;43.93;99241.11;1651741;86;21306;-74
2021/07/30 10:15:14;;;;;;;3.98;3.67;;;;;;;27.97;42.88;99251.51;1637134;86;21008;-71
2021/07/30 10:17:50;;;;;;;5.50;3.80;;;;;;;28.00;42.62;99241.09;1652558;86;21446;-71
2021/07/30 10:20:21;;;;;;;4.10;3.80;;;;;;;28.01;43.24;99242.08;1677309;85;21529;-71
2021/07/30 10:23:06;;;;;;;4.37;4.00;;;;;;;28.05;43.84;99229.13;1680287;84;21499;-72
2021/07/30 10:38:24;;;;;;;4.22;3.92;;;;;;;29.09;41.14;99218.47;1784688;77;22974;-72
2021/07/30 10:41:08;;;;;;;4.25;3.85;;;;;;;29.19;39.94;99204.70;1786981;80;20895;-72
2021/07/30 10:44:02;;;;;;;5.87;3.62;;;;;;;29.32;40.35;99205.98;1742538;82;21074;-72
2021/07/30 10:46:28;;;;;;;6.45;3.62;;;;;;;29.52;39.68;99209.86;1737303;82;20901;-76
2021/07/30 10:48:55;;;;;;;4.30;3.90;;;;;;;29.56;38.70;99208.69;1744960;82;20939;-74
2021/07/30 10:51:27;;;;;;;4.12;3.75;;;;;;;29.53;38.87;99201.17;1745198;82;21443;-75
2021/07/30 10:54:04;;;;;;;4.15;3.75;;;;;;;29.55;39.02;99216.80;1717170;82;20990;-74
2021/07/30 10:56:40;;;;;;;4.80;4.37;;;;;;;29.55;39.18;99203.53;1733632;82;21123;-74
2021/07/30 10:59:06;;;;;;;4.05;3.75;;;;;;;29.55;39.30;99203.53;1733210;82;20918;-73
2021/07/30 11:01:43;;;;;;;5.40;3.60;;;;;;;29.58;39.64;99202.77;1734080;82;20938;-74
2021/07/30 11:04:10;;;;;;;4.35;3.95;;;;;;;29.61;37.46;99228.31;1733851;82;20969;-74
2021/07/30 11:06:42;;;;;;;4.28;3.87;;;;;;;29.60;37.65;99199.80;1706548;82;21009;-74
2021/07/30 11:09:16;;;;;;;8.03;3.42;;;;;;;29.60;38.10;99200.38;1733841;82;21113;-72
2021/07/30 11:11:58;;;;;;;3.72;3.42;;;;;;;29.55;38.03;99189.67;1734417;82;21429;-73
2021/07/30 11:14:30;;;;;;;4.40;3.35;;;;;;;29.50;37.50;99190.06;1705855;82;20986;-72
2021/07/30 11:17:04;;;;;;;4.08;3.65;;;;;;;29.40;37.88;99189.60;1706200;82;21008;-74
2021/07/30 11:19:36;;;;;;;3.70;3.40;;;;;;;29.39;37.50;99188.62;1733679;82;20924;-71
2021/07/30 11:22:05;;;;;;;5.40;3.55;;;;;;;29.42;37.65;99185.86;1733427;82;21013;-72
2021/07/30 11:24:45;;;;;;;4.78;3.33;;;;;;;29.40;36.72;99193.76;1732472;82;21389;-72
2021/07/30 11:27:15;;;;;;;4.30;3.90;;;;;;;29.39;36.81;99178.92;1711322;82;20945;-72
2021/07/30 11:29:49;;;;;;;4.53;3.40;;;;;;;29.32;37.01;99175.52;1702986;84;21046;-73
2021/07/30 11:32:19;;;;;;;6.35;4.03;;;;;;;29.32;36.99;99178.28;1676979;84;20963;-72
2021/07/30 11:34:49;;;;;;;3.87;3.58;;;;;;;29.33;36.61;99188.78;1676981;84;21745;-72
2021/07/30 11:37:17;;;;;;;3.72;3.10;;;;;;;29.26;36.78;99177.02;1698490;83;20940;-73
2021/07/30 11:39:47;;;;;;;8.45;3.22;;;;;;;29.29;36.15;99172.70;1646678;84;21003;-72
2021/07/30 11:42:30;;;;;;;3.90;3.50;;;;;;;29.28;37.00;99167.75;1690112;84;21489;-75
2021/07/30 11:45:01;;;;;;;3.35;3.05;;;;;;;29.27;37.21;99173.08;1705656;84;21554;-75
2021/07/30 11:47:29;;;;;;;3.20;2.87;;;;;;;29.31;36.50;99156.50;1705890;84;21839;-79
2021/07/30 11:50:17;;;;;;;3.60;3.30;;;;;;;29.29;36.82;99158.26;1705732;83;21517;-74